Time;durP1;ratioP1;P1;durP2;ratioP2;P2;SDS_P1;SDS_P2;PMS_P1;PMS_P2;Temp;Humidity;BMP_temperature;BMP_pressure;BME280_temperature;BME280_humidity;BME280_pressure;Samples;Min_cycle;Max_cycle;Signal;HPM_P1;HPM_P2
2023/08/16 00:01:28;;;;;;;10.60;6.90;;;;;;;21.42;70.01;100622.59;105387;1260;69208;-60
2023/08/16 00:03:55;;;;;;;9.40;6.60;;;;;;;21.40;70.30;100625.78;105448;1258;69121;-61
2023/08/16 00:06:23;;;;;;;9.50;6.20;;;;;;;21.38;70.41;100626.26;105493;1254;73968;-60
2023/08/16 00:08:53;;;;;;;9.60;5.90;;;;;;;21.36;70.44;100626.38;105436;1259;83116;-61
2023/08/16 00:11:20;;;;;;;12.30;6.70;;;;;;;21.36;70.45;100626.60;105385;1254;72692;-61
2023/08/16 00:13:47;;;;;;;6.70;5.80;;;;;;;21.35;70.57;100618.19;105386;1254;69205;-61
2023/08/16 00:16:14;;;;;;;8.20;6.30;;;;;;;21.33;70.55;100617.95;105445;1255;69166;-61
2023/08/16 00:18:41;;;;;;;9.60;6.80;;;;;;;21.31;70.68;100621.49;105451;1254;72954;-62
2023/08/16 00:21:08;;;;;;;12.20;6.50;;;;;;;21.28;70.89;100626.46;105484;1259;82963;-62
2023/08/16 00:23:34;;;;;;;8.20;6.50;;;;;;;21.26;71.09;100626.66;105412;1254;73599;-62
2023/08/16 00:26:01;;;;;;;12.70;7.10;;;;;;;21.23;71.24;100631.70;105356;1254;69122;-61
2023/08/16 00:28:28;;;;;;;8.10;7.30;;;;;;;21.17;71.24;100635.73;105519;1254;69159;-61
2023/08/16 00:30:55;;;;;;;9.20;6.40;;;;;;;21.11;71.35;100634.01;105448;1260;71963;-61
2023/08/16 00:33:22;;;;;;;7.30;6.50;;;;;;;21.10;71.46;100635.50;105407;1254;83234;-62
2023/08/16 00:35:51;;;;;;;10.50;7.40;;;;;;;21.11;71.59;100637.73;105468;1254;73837;-62
2023/08/16 00:38:18;;;;;;;9.50;6.60;;;;;;;21.10;71.64;100638.02;105314;1254;69106;-61
2023/08/16 00:40:50;;;;;;;9.40;6.80;;;;;;;21.08;71.66;100637.48;105465;1260;69195;-61
2023/08/16 00:43:18;;;;;;;12.80;7.00;;;;;;;21.07;71.80;100633.87;105427;1254;74301;-62
2023/08/16 00:45:46;;;;;;;8.60;6.60;;;;;;;21.05;71.87;100635.38;105414;1260;83287;-62
2023/08/16 00:48:13;;;;;;;10.30;6.50;;;;;;;21.05;71.98;100635.06;105172;1257;71799;-61
2023/08/16 00:50:40;;;;;;;12.00;7.10;;;;;;;21.05;72.07;100635.93;105409;1260;69156;-61
2023/08/16 00:53:08;;;;;;;10.00;6.60;;;;;;;21.05;72.06;100630.10;105350;1260;69195;-61
2023/08/16 00:55:35;;;;;;;8.00;6.90;;;;;;;21.06;72.26;100632.65;105410;1254;74579;-61
2023/08/16 00:58:02;;;;;;;9.90;7.20;;;;;;;21.08;72.17;100631.64;105423;1254;82454;-61
2023/08/16 01:00:30;;;;;;;11.70;7.00;;;;;;;21.09;72.19;100627.09;105406;1254;72566;-61
2023/08/16 01:02:57;;;;;;;8.90;6.90;;;;;;;21.09;72.28;100632.21;105476;1259;69192;-61
2023/08/16 01:05:25;;;;;;;8.50;7.00;;;;;;;21.10;72.45;100631.06;105453;1260;69323;-61
2023/08/16 01:07:52;;;;;;;10.30;7.90;;;;;;;21.09;72.60;100632.40;105424;1254;72957;-61
2023/08/16 01:10:27;;;;;;;10.80;7.40;;;;;;;21.05;72.81;100636.98;105439;1259;83419;-61
2023/08/16 01:12:57;;;;;;;7.90;6.70;;;;;;;20.97;72.99;100639.23;105428;1254;72528;-61
2023/08/16 01:15:29;;;;;;;8.30;7.10;;;;;;;20.88;73.27;100637.55;105404;1259;69213;-61
2023/08/16 01:17:56;;;;;;;8.80;7.00;;;;;;;20.81;73.71;100641.67;105382;1258;69119;-62
2023/08/16 01:20:25;;;;;;;10.90;7.00;;;;;;;20.72;73.84;100639.34;105436;1254;74351;-61
2023/08/16 01:23:09;;;;;;;8.10;6.80;;;;;;;20.62;74.27;100640.81;105456;1254;83643;-61
2023/08/16 01:25:55;;;;;;;8.20;7.30;;;;;;;20.50;74.52;100640.23;105377;1260;73748;-61
2023/08/16 01:28:23;;;;;;;8.70;7.30;;;;;;;20.40;74.89;100641.00;105374;1254;69155;-61
2023/08/16 01:30:50;;;;;;;9.60;7.40;;;;;;;20.36;75.41;100652.84;105173;1260;69291;-61
2023/08/16 01:33:17;;;;;;;9.10;7.30;;;;;;;20.33;75.49;100679.16;105396;1254;73177;-61
2023/08/16 01:35:45;;;;;;;11.50;7.50;;;;;;;20.26;75.52;100672.01;105444;1254;83958;-61
2023/08/16 01:38:14;;;;;;;9.10;7.60;;;;;;;20.27;75.62;100668.55;105382;1260;73844;-61
2023/08/16 01:40:49;;;;;;;11.70;7.50;;;;;;;20.33;75.63;100668.02;105430;1254;69112;-61
2023/08/16 01:43:18;;;;;;;10.10;7.10;;;;;;;20.35;75.60;100667.48;105417;1254;69128;-62
2023/08/16 01:45:47;;;;;;;10.70;7.50;;;;;;;20.37;75.69;100672.30;105391;1254;72974;-61
2023/08/16 01:48:15;;;;;;;13.20;7.80;;;;;;;20.40;75.68;100670.82;105432;1254;83001;-61
2023/08/16 01:50:43;;;;;;;10.20;7.60;;;;;;;20.43;75.66;100675.59;105480;1258;73500;-61
2023/08/16 01:53:11;;;;;;;12.10;7.20;;;;;;;20.45;75.72;100670.83;105403;1255;69077;-61
2023/08/16 01:55:38;;;;;;;8.50;7.30;;;;;;;20.45;75.68;100670.05;105375;1255;69236;-61
2023/08/16 01:58:05;;;;;;;9.30;7.70;;;;;;;20.47;75.62;100677.38;105382;1255;74000;-61
2023/08/16 02:00:32;;;;;;;7.90;7.20;;;;;;;20.46;75.47;100671.91;105385;1254;83784;-61
2023/08/16 02:02:59;;;;;;;13.10;7.40;;;;;;;20.45;75.61;100662.77;105511;1260;71559;-61
2023/08/16 02:05:26;;;;;;;8.00;7.20;;;;;;;20.45;75.66;100664.94;105468;1255;69277;-61
2023/08/16 02:07:53;;;;;;;11.30;7.30;;;;;;;20.40;75.72;100670.29;105429;1260;69115;-61
2023/08/16 02:10:20;;;;;;;10.70;7.60;;;;;;;20.36;75.77;100670.23;105416;1254;72953;-61
2023/08/16 02:12:47;;;;;;;11.10;7.60;;;;;;;20.33;75.83;100664.63;105378;1260;83474;-61
2023/08/16 02:15:14;;;;;;;9.70;7.80;;;;;;;20.30;76.11;100661.83;105388;1254;73600;-62
2023/08/16 02:17:42;;;;;;;11.50;7.70;;;;;;;20.22;76.10;100661.46;105434;1260;69188;-61
2023/08/16 02:20:10;;;;;;;8.70;7.50;;;;;;;20.10;76.17;100662.91;105425;1255;69189;-61
2023/08/16 02:22:37;;;;;;;9.20;7.30;;;;;;;19.98;76.28;100666.76;105427;1254;73078;-61
2023/08/16 02:25:11;;;;;;;10.90;8.30;;;;;;;19.87;76.52;100668.07;105453;1260;83133;-63
2023/08/16 02:27:40;;;;;;;9.90;8.00;;;;;;;19.80;76.89;100666.61;105414;1255;73638;-63
2023/08/16 02:30:07;;;;;;;10.40;8.40;;;;;;;19.74;77.09;100668.48;105419;1254;69186;-60
2023/08/16 02:32:35;;;;;;;11.30;7.60;;;;;;;19.68;77.39;100671.92;105440;1260;69171;-61
2023/08/16 02:35:03;;;;;;;9.60;7.70;;;;;;;19.66;77.71;100673.83;105468;1255;73999;-61
2023/08/16 02:37:30;;;;;;;11.40;8.00;;;;;;;19.59;77.82;100671.82;105423;1260;83235;-61
2023/08/16 02:39:59;;;;;;;9.40;7.60;;;;;;;19.54;77.98;100669.15;105367;1260;74057;-61
2023/08/16 02:42:26;;;;;;;11.00;7.90;;;;;;;19.52;78.14;100673.23;105420;1255;69182;-61
2023/08/16 02:44:53;;;;;;;11.30;8.50;;;;;;;19.51;78.39;100677.55;105269;1254;69189;-60
2023/08/16 02:47:20;;;;;;;8.70;7.80;;;;;;;19.48;78.48;100678.45;105423;1258;72839;-61
2023/08/16 02:49:47;;;;;;;9.00;8.10;;;;;;;19.49;78.70;100679.85;105475;1259;82373;-61
2023/08/16 02:52:14;;;;;;;10.50;7.80;;;;;;;19.44;78.76;100680.71;105439;1259;73659;-61
2023/08/16 02:54:41;;;;;;;12.40;8.50;;;;;;;19.39;78.88;100681.19;105454;1260;69171;-60
2023/08/16 02:57:08;;;;;;;8.50;7.70;;;;;;;19.35;78.88;100676.71;105453;1260;69352;-61
2023/08/16 02:59:40;;;;;;;11.60;8.60;;;;;;;19.30;79.00;100672.60;105399;1259;73688;-61
2023/08/16 03:02:07;;;;;;;9.10;8.20;;;;;;;19.26;79.23;100674.35;105401;1260;83603;-61
2023/08/16 03:04:39;;;;;;;10.00;7.90;;;;;;;19.22;79.55;100672.65;105436;1254;73564;-61
2023/08/16 03:07:09;;;;;;;10.60;8.40;;;;;;;19.17;79.77;100677.97;105395;1254;69106;-61
2023/08/16 03:09:37;;;;;;;13.30;8.10;;;;;;;19.09;79.75;100679.89;105401;1254;69206;-61
2023/08/16 03:12:06;;;;;;;8.80;7.60;;;;;;;18.99;79.91;100676.89;105422;1260;74147;-61
2023/08/16 03:14:33;;;;;;;9.60;8.60;;;;;;;18.90;80.06;100678.51;105461;1255;83656;-61
2023/08/16 03:17:02;;;;;;;10.30;8.80;;;;;;;18.82;80.43;100678.58;105462;1259;73591;-61
2023/08/16 03:19:30;;;;;;;9.50;8.10;;;;;;;18.74;80.54;100684.54;105369;1257;69169;-61
2023/08/16 03:21:56;;;;;;;11.10;9.20;;;;;;;18.65;80.77;100686.19;105281;1260;69073;-61
2023/08/16 03:24:26;;;;;;;10.00;8.80;;;;;;;18.58;81.14;100687.56;105359;1259;73020;-61
2023/08/16 03:26:53;;;;;;;10.30;8.70;;;;;;;18.52;81.44;100688.82;105374;1259;83463;-61
2023/08/16 03:29:20;;;;;;;9.70;8.70;;;;;;;18.46;81.62;100694.52;105215;1259;72951;-60
2023/08/16 03:31:47;;;;;;;10.90;8.90;;;;;;;18.40;81.89;100698.28;105214;1258;69736;-61
2023/08/16 03:34:15;;;;;;;11.00;8.70;;;;;;;18.36;82.24;100701.23;105283;1259;69202;-61
2023/08/16 03:36:43;;;;;;;10.90;8.70;;;;;;;18.33;82.57;100696.27;105434;1259;72877;-61
2023/08/16 03:39:11;;;;;;;10.40;8.90;;;;;;;18.34;82.86;100704.37;105412;1259;83484;-62
2023/08/16 03:41:38;;;;;;;11.60;8.90;;;;;;;18.34;83.13;100705.20;105278;1254;74209;-61
2023/08/16 03:44:08;;;;;;;12.20;9.20;;;;;;;18.37;83.29;100704.33;105251;1257;69131;-61
2023/08/16 03:46:35;;;;;;;11.50;9.20;;;;;;;18.37;83.57;100706.05;105346;1257;69192;-61
2023/08/16 03:49:03;;;;;;;10.20;8.60;;;;;;;18.38;83.64;100710.97;105175;1254;74374;-61
2023/08/16 03:51:31;;;;;;;13.70;9.50;;;;;;;18.35;83.71;100715.91;105408;1260;82758;-61
2023/08/16 03:53:58;;;;;;;11.00;9.20;;;;;;;18.34;83.80;100715.10;105293;1257;72607;-61
2023/08/16 03:56:25;;;;;;;10.00;8.90;;;;;;;18.30;83.84;100715.17;105408;1254;69250;-61
2023/08/16 03:58:54;;;;;;;16.00;9.70;;;;;;;18.27;84.08;100715.41;105463;1260;69154;-61
2023/08/16 04:01:22;;;;;;;10.70;9.60;;;;;;;18.27;84.35;100720.14;105417;1260;74207;-61
2023/08/16 04:03:50;;;;;;;10.70;9.40;;;;;;;18.28;84.67;100716.38;105445;1260;83343;-61
2023/08/16 04:06:20;;;;;;;12.60;9.80;;;;;;;18.30;84.95;100716.80;105417;1260;73581;-61
2023/08/16 04:08:48;;;;;;;13.10;10.70;;;;;;;18.33;85.32;100716.25;105401;1260;69196;-61
2023/08/16 04:11:15;;;;;;;13.00;11.50;;;;;;;18.36;85.62;100719.77;105210;1259;69179;-61
2023/08/16 04:13:42;;;;;;;12.80;10.70;;;;;;;18.41;85.91;100722.11;105417;1254;73917;-61
2023/08/16 04:16:10;;;;;;;12.20;11.00;;;;;;;18.45;86.11;100724.83;105471;1258;82280;-61
2023/08/16 04:18:38;;;;;;;13.00;11.00;;;;;;;18.48;86.27;100721.63;105330;1259;72619;-61
2023/08/16 04:21:05;;;;;;;14.60;11.80;;;;;;;18.52;86.49;100729.00;105364;1259;69191;-62
2023/08/16 04:23:32;;;;;;;15.30;11.90;;;;;;;18.56;86.60;100734.57;105469;1258;69156;-63
2023/08/16 04:26:01;;;;;;;13.90;11.80;;;;;;;18.59;86.88;100741.79;105466;1260;72813;-63
2023/08/16 04:28:29;;;;;;;13.30;11.90;;;;;;;18.64;87.15;100746.27;105418;1259;83275;-63
2023/08/16 04:30:57;;;;;;;14.00;12.60;;;;;;;18.71;87.62;100748.48;105415;1254;73762;-64
2023/08/16 04:33:24;;;;;;;13.10;11.80;;;;;;;18.79;87.66;100748.16;105564;1255;69271;-61
2023/08/16 04:35:54;;;;;;;13.80;11.70;;;;;;;18.84;87.62;100749.77;105368;1260;69325;-61
2023/08/16 04:38:23;;;;;;;13.40;12.10;;;;;;;18.88;87.67;100750.75;105401;1261;73080;-61
2023/08/16 04:40:50;;;;;;;13.00;11.60;;;;;;;18.90;87.73;100754.80;105268;1257;82536;-61
2023/08/16 04:43:18;;;;;;;13.00;11.60;;;;;;;18.97;88.02;100759.02;105384;1258;73771;-61
2023/08/16 04:45:46;;;;;;;12.60;11.30;;;;;;;19.05;88.35;100755.47;105536;1258;69071;-62
2023/08/16 04:48:14;;;;;;;13.00;11.70;;;;;;;19.13;88.48;100757.95;105476;1259;69164;-62
2023/08/16 04:50:42;;;;;;;13.10;11.80;;;;;;;19.20;88.49;100758.71;105292;1259;73961;-62
2023/08/16 04:53:10;;;;;;;13.30;12.10;;;;;;;19.25;88.38;100761.20;105470;1260;84525;-62
2023/08/16 04:55:37;;;;;;;13.30;11.90;;;;;;;19.29;88.46;100757.58;105249;1260;72656;-62
2023/08/16 04:58:03;;;;;;;15.10;13.60;;;;;;;19.34;88.51;100761.13;105250;1255;69068;-61
2023/08/16 05:00:30;;;;;;;15.90;12.00;;;;;;;19.38;88.61;100765.78;105261;1260;69470;-62
2023/08/16 05:03:01;;;;;;;16.60;12.80;;;;;;;19.45;88.83;100768.00;105694;1259;74369;-62
2023/08/16 05:05:30;;;;;;;14.30;12.30;;;;;;;19.51;88.97;100775.00;105385;1261;83295;-62
2023/08/16 05:07:57;;;;;;;14.10;12.80;;;;;;;19.56;88.93;100776.44;105264;1259;73482;-61
2023/08/16 05:10:24;;;;;;;14.20;12.40;;;;;;;19.61;88.98;100777.02;105266;1257;69161;-62
2023/08/16 05:12:51;;;;;;;14.80;13.10;;;;;;;19.65;89.00;100777.13;105421;1260;69099;-62
2023/08/16 05:15:18;;;;;;;15.40;12.90;;;;;;;19.68;89.14;100771.73;105564;1259;73889;-62
2023/08/16 05:17:45;;;;;;;14.90;13.40;;;;;;;19.73;89.15;100766.47;105373;1259;82461;-62
2023/08/16 05:20:12;;;;;;;15.40;13.80;;;;;;;19.77;89.27;100766.35;105328;1258;72540;-61
2023/08/16 05:22:39;;;;;;;15.20;13.70;;;;;;;19.81;89.36;100769.09;105351;1258;69169;-62
2023/08/16 05:25:06;;;;;;;16.50;14.40;;;;;;;19.86;89.43;100769.12;105534;1259;69129;-60
2023/08/16 05:27:33;;;;;;;16.10;14.50;;;;;;;19.91;89.73;100770.55;107699;1257;73968;-60
2023/08/16 05:30:00;;;;;;;15.20;13.70;;;;;;;19.96;89.72;100766.80;105317;1259;82356;-60
2023/08/16 05:32:27;;;;;;;15.50;13.90;;;;;;;19.99;89.75;100766.91;105412;1254;73722;-61
2023/08/16 05:34:54;;;;;;;17.30;14.80;;;;;;;20.04;90.01;100769.40;105355;1254;69176;-60
2023/08/16 05:37:21;;;;;;;17.10;14.20;;;;;;;20.10;90.31;100774.66;105360;1254;69061;-60
2023/08/16 05:39:49;;;;;;;16.40;14.20;;;;;;;20.19;90.56;100780.60;105470;1259;72879;-59
2023/08/16 05:42:16;;;;;;;15.00;13.50;;;;;;;20.29;90.82;100780.58;105351;1260;82200;-61
2023/08/16 05:44:43;;;;;;;15.80;14.20;;;;;;;20.39;90.96;100778.61;105389;1260;71592;-60
2023/08/16 05:47:10;;;;;;;18.60;16.70;;;;;;;20.49;90.93;100780.02;105365;1260;69534;-59
2023/08/16 05:49:37;;;;;;;18.20;16.20;;;;;;;20.58;91.08;100781.75;105442;1258;69170;-60
2023/08/16 05:52:03;;;;;;;19.80;17.70;;;;;;;20.68;91.29;100784.02;105395;1260;72875;-60
2023/08/16 05:54:30;;;;;;;18.20;15.90;;;;;;;20.77;91.25;100786.91;105406;1257;82521;-62
2023/08/16 05:56:57;;;;;;;20.90;16.70;;;;;;;20.86;91.33;100791.55;105370;1260;72044;-63
2023/08/16 05:59:24;;;;;;;18.90;17.00;;;;;;;20.95;91.33;100798.86;105429;1255;69067;-62
2023/08/16 06:01:51;;;;;;;21.70;17.20;;;;;;;21.04;91.21;100799.48;105402;1259;69122;-62
2023/08/16 06:04:18;;;;;;;18.40;16.50;;;;;;;21.12;91.24;100800.10;105415;1260;74229;-61
2023/08/16 06:06:45;;;;;;;19.80;17.20;;;;;;;21.20;91.12;100799.31;105385;1264;82294;-62
2023/08/16 06:09:12;;;;;;;18.30;16.30;;;;;;;21.32;91.39;100800.77;105362;1255;73820;-62
2023/08/16 06:11:39;;;;;;;14.30;12.90;;;;;;;21.43;91.47;100802.23;105484;1259;69211;-62
2023/08/16 06:14:05;;;;;;;12.20;11.10;;;;;;;21.56;91.57;100799.83;105557;1261;69112;-65
2023/08/16 06:16:32;;;;;;;11.80;10.30;;;;;;;21.70;91.75;100807.64;105513;1260;73997;-62
2023/08/16 06:18:59;;;;;;;11.30;10.30;;;;;;;21.82;91.64;100806.87;105484;1260;83229;-61
2023/08/16 06:21:26;;;;;;;10.80;9.70;;;;;;;21.94;91.48;100809.67;105525;1260;72586;-60
2023/08/16 06:23:56;;;;;;;12.10;10.80;;;;;;;22.07;91.41;100818.13;105663;1260;69081;-60
2023/08/16 06:26:23;;;;;;;11.00;9.90;;;;;;;22.18;91.19;100820.48;105559;1259;69067;-61
2023/08/16 06:28:50;;;;;;;11.40;10.00;;;;;;;22.26;90.78;100817.14;105450;1258;72683;-60
2023/08/16 06:31:17;;;;;;;10.70;9.70;;;;;;;22.36;90.61;100818.88;105414;1260;83081;-61
2023/08/16 06:33:45;;;;;;;11.00;9.90;;;;;;;22.44;90.55;100820.50;105517;1267;73668;-61
2023/08/16 06:36:13;;;;;;;11.10;10.00;;;;;;;22.54;90.49;100819.40;105428;1260;69188;-60
2023/08/16 06:38:40;;;;;;;10.50;9.60;;;;;;;22.63;90.21;100821.10;105555;1259;69113;-59
2023/08/16 06:41:07;;;;;;;11.00;9.50;;;;;;;22.73;89.96;100824.08;105398;1255;74073;-59
2023/08/16 06:43:34;;;;;;;10.40;8.90;;;;;;;22.80;89.41;100821.21;105447;1264;83312;-59
2023/08/16 06:46:01;;;;;;;10.50;9.50;;;;;;;22.86;89.19;100821.20;105377;1260;73787;-59
2023/08/16 06:48:28;;;;;;;10.50;9.40;;;;;;;22.93;89.04;100826.70;105522;1254;69510;-59
2023/08/16 06:50:55;;;;;;;9.60;8.40;;;;;;;23.00;88.73;100824.42;105360;1261;69131;-59
2023/08/16 06:53:23;;;;;;;9.50;8.50;;;;;;;23.05;88.58;100819.84;105437;1255;74219;-60
2023/08/16 06:55:55;;;;;;;10.20;8.50;;;;;;;23.10;88.30;100821.73;105436;1259;82277;-59
2023/08/16 06:58:22;;;;;;;9.80;8.90;;;;;;;23.16;88.06;100826.25;105390;1257;72630;-59
2023/08/16 07:00:49;;;;;;;10.00;9.10;;;;;;;23.21;87.87;100826.58;105467;1260;69189;-59
2023/08/16 07:03:19;;;;;;;10.10;9.10;;;;;;;23.28;87.78;100835.98;105407;1254;69161;-59
2023/08/16 07:05:47;;;;;;;10.00;9.00;;;;;;;23.35;87.71;100835.94;105468;1258;73875;-59
2023/08/16 07:08:14;;;;;;;9.80;8.90;;;;;;;23.42;87.63;100832.86;105385;1254;82495;-59
2023/08/16 07:10:44;;;;;;;13.10;9.70;;;;;;;23.49;87.58;100832.91;105367;1259;73911;-59
2023/08/16 07:13:11;;;;;;;10.40;9.40;;;;;;;23.57;87.31;100834.02;105372;1259;69058;-59
2023/08/16 07:15:38;;;;;;;10.60;9.60;;;;;;;23.64;87.18;100834.92;105374;1254;69767;-59
2023/08/16 07:18:05;;;;;;;12.30;10.50;;;;;;;23.71;87.11;100829.67;105379;1257;73920;-59
2023/08/16 07:20:33;;;;;;;13.20;10.50;;;;;;;23.77;86.81;100829.71;105479;1258;83743;-59
2023/08/16 07:23:00;;;;;;;13.30;12.00;;;;;;;23.84;87.04;100837.86;105340;1267;72621;-60
2023/08/16 07:25:27;;;;;;;12.40;11.30;;;;;;;23.96;87.13;100837.86;105376;1260;69097;-61
2023/08/16 07:27:54;;;;;;;11.20;10.20;;;;;;;24.05;86.67;100837.05;105415;1259;69174;-61
2023/08/16 07:30:21;;;;;;;11.80;10.60;;;;;;;24.12;86.28;100839.69;105398;1260;73083;-61
2023/08/16 07:32:48;;;;;;;13.40;10.50;;;;;;;24.19;85.91;100839.41;105364;1257;83231;-61
2023/08/16 07:35:16;;;;;;;12.30;11.00;;;;;;;24.24;85.64;100840.41;105377;1260;72679;-60
2023/08/16 07:37:43;;;;;;;11.10;10.00;;;;;;;24.28;85.32;100842.03;105356;1260;69172;-60
2023/08/16 07:40:11;;;;;;;11.60;10.00;;;;;;;24.34;85.20;100846.58;105432;1258;69124;-61
2023/08/16 07:42:37;;;;;;;11.20;10.00;;;;;;;24.41;85.26;100845.75;105423;1264;73753;-61
2023/08/16 07:45:06;;;;;;;10.40;9.40;;;;;;;24.48;84.94;100846.96;105355;1261;82452;-61
2023/08/16 07:47:32;;;;;;;9.50;8.60;;;;;;;24.54;84.59;100846.94;105428;1260;72700;-61
2023/08/16 07:50:00;;;;;;;9.50;8.50;;;;;;;24.64;84.59;100851.05;105336;1255;69039;-60
2023/08/16 07:52:27;;;;;;;9.90;9.00;;;;;;;24.74;84.44;100848.17;105479;1258;69199;-60
2023/08/16 07:54:55;;;;;;;9.60;8.60;;;;;;;24.85;84.20;100848.24;105394;1254;74382;-61
2023/08/16 07:57:23;;;;;;;9.50;8.60;;;;;;;24.96;83.77;100849.48;105208;1260;298689;-61
2023/08/16 07:59:51;;;;;;;11.20;8.60;;;;;;;25.06;83.84;100849.25;105404;1260;72613;-61
2023/08/16 08:02:18;;;;;;;9.00;8.10;;;;;;;25.22;83.92;100847.62;105356;1258;69178;-61
2023/08/16 08:04:45;;;;;;;10.30;8.60;;;;;;;25.35;83.53;100850.52;105345;1267;69193;-61
2023/08/16 08:07:12;;;;;;;9.90;8.90;;;;;;;25.46;83.05;100847.90;105415;1261;74041;-61
2023/08/16 08:09:39;;;;;;;14.20;9.70;;;;;;;25.58;82.80;100848.21;105264;1260;83203;-61
2023/08/16 08:12:06;;;;;;;11.50;8.80;;;;;;;25.70;82.50;100851.81;105421;1258;72660;-61
2023/08/16 08:14:33;;;;;;;9.70;8.80;;;;;;;25.77;81.81;100851.30;105376;1254;69152;-61
2023/08/16 08:17:00;;;;;;;9.60;8.70;;;;;;;25.84;81.67;100852.44;105346;1260;69166;-61
2023/08/16 08:19:27;;;;;;;9.90;8.80;;;;;;;25.93;81.52;100856.10;105421;1255;74086;-61
2023/08/16 08:21:54;;;;;;;9.80;8.80;;;;;;;26.02;81.35;100858.76;105393;1255;82716;-61
2023/08/16 08:24:21;;;;;;;10.30;9.20;;;;;;;26.10;80.82;100861.88;105408;1258;73460;-63
2023/08/16 08:26:48;;;;;;;10.30;9.30;;;;;;;26.19;80.56;100863.27;105405;1257;69694;-61
2023/08/16 08:29:18;;;;;;;9.70;8.70;;;;;;;26.27;80.17;100863.91;105354;1260;69116;-62
2023/08/16 08:31:45;;;;;;;;;;;;;;;26.37;79.99;100865.10;105400;1254;72927;-62
2023/08/16 08:34:14;;;;;;;9.40;8.50;;;;;;;26.45;79.78;100867.19;105449;1254;82765;-61
2023/08/16 08:36:40;;;;;;;10.50;9.40;;;;;;;26.57;79.66;100867.94;105426;1260;72639;-62
2023/08/16 08:39:08;;;;;;;10.70;8.90;;;;;;;26.67;79.07;100870.15;105457;1255;69092;-62
2023/08/16 08:41:37;;;;;;;10.30;9.00;;;;;;;26.78;78.96;100868.13;105501;1254;69223;-62
2023/08/16 08:44:16;;;;;;;9.20;8.40;;;;;;;26.90;78.46;100871.97;105478;1254;73943;-61
2023/08/16 08:46:46;;;;;;;9.10;8.20;;;;;;;27.01;78.13;100873.64;105494;1258;83211;-62
2023/08/16 08:49:18;;;;;;;8.50;7.70;;;;;;;27.12;77.35;100877.38;105406;1254;71905;-62
2023/08/16 08:51:46;;;;;;;16.80;8.50;;;;;;;27.20;76.89;100878.02;105433;1254;69125;-62
2023/08/16 08:54:13;;;;;;;11.50;8.50;;;;;;;27.29;76.72;100881.27;105458;1257;69288;-62
2023/08/16 08:56:40;;;;;;;10.20;7.80;;;;;;;27.37;75.94;100882.11;105393;1260;73094;-62
2023/08/16 08:59:08;;;;;;;8.60;7.70;;;;;;;27.39;75.24;100885.32;105407;1254;83025;-61
2023/08/16 09:01:44;;;;;;;8.90;8.00;;;;;;;27.46;75.35;100889.63;105374;1254;73895;-61
2023/08/16 09:04:12;;;;;;;;;;;;;;;27.54;75.21;100889.86;105424;1254;69060;-61
2023/08/16 09:06:39;;;;;;;9.60;8.50;;;;;;;27.63;74.90;100893.11;105447;1259;69206;-59
2023/08/16 09:09:07;;;;;;;10.70;7.80;;;;;;;27.67;74.58;100895.34;105419;1260;72961;-59
2023/08/16 09:11:34;;;;;;;8.60;7.80;;;;;;;27.76;74.37;100896.77;105423;1254;82679;-59
2023/08/16 09:14:03;;;;;;;8.30;7.60;;;;;;;27.86;73.92;100893.45;105448;1255;73430;-59
2023/08/16 09:16:30;;;;;;;;;;;;;;;27.94;73.78;100894.05;105452;1254;69157;-59
2023/08/16 09:18:57;;;;;;;12.90;7.80;;;;;;;28.02;73.30;100897.88;105395;1254;69166;-59
2023/08/16 09:21:24;;;;;;;8.60;7.80;;;;;;;28.13;72.97;100894.81;105424;1261;73140;-60
2023/08/16 09:23:56;;;;;;;8.10;7.20;;;;;;;28.19;72.57;100894.74;105422;1254;83778;-60
2023/08/16 09:26:26;;;;;;;8.50;7.70;;;;;;;28.25;72.48;100889.63;105475;1254;73684;-59
2023/08/16 09:29:02;;;;;;;8.70;7.50;;;;;;;28.36;72.22;100889.23;105471;1261;69871;-59
2023/08/16 09:31:40;;;;;;;8.00;7.30;;;;;;;28.47;71.89;100892.23;105439;1259;69154;-59
2023/08/16 09:34:08;;;;;;;8.60;6.80;;;;;;;28.59;71.69;100892.05;105453;1254;74219;-59
2023/08/16 09:36:35;;;;;;;170.10;153.30;;;;;;;28.66;71.27;100892.85;105430;1254;83252;-59
2023/08/16 09:39:08;;;;;;;16.80;15.00;;;;;;;28.76;70.92;100888.63;105422;1258;74065;-60
2023/08/16 09:41:38;;;;;;;11.60;9.40;;;;;;;28.88;70.39;100886.88;105416;1254;70533;-59
2023/08/16 09:44:08;;;;;;;8.60;7.70;;;;;;;29.04;70.44;100885.77;105446;1259;69143;-60
2023/08/16 09:46:35;;;;;;;6.50;6.00;;;;;;;29.25;69.91;100886.46;105504;1259;73487;-60
2023/08/16 09:49:07;;;;;;;7.60;6.80;;;;;;;29.38;69.23;100884.41;105445;1259;83462;-61
2023/08/16 09:51:41;;;;;;;9.20;7.70;;;;;;;29.53;68.67;100881.86;105437;1259;73593;-69
2023/08/16 09:54:14;;;;;;;6.20;5.60;;;;;;;29.66;68.12;100881.84;104904;1260;69356;-67
2023/08/16 09:56:43;;;;;;;8.00;5.10;;;;;;;29.77;67.39;100881.98;105009;1261;69653;-69
2023/08/16 09:59:30;;;;;;;7.00;5.40;;;;;;;29.97;66.79;100879.91;104963;1264;73049;-67
2023/08/16 10:02:00;;;;;;;8.20;5.40;;;;;;;30.13;65.95;100879.08;104676;1267;83593;-67
2023/08/16 10:04:31;;;;;;;8.00;4.80;;;;;;;30.30;65.77;100881.62;104202;1272;72663;-67
2023/08/16 10:07:01;;;;;;;11.30;5.80;;;;;;;30.47;65.25;100878.98;103860;1273;69122;-67
2023/08/16 10:09:35;;;;;;;5.60;5.10;;;;;;;30.67;64.80;100877.32;103343;1283;69243;-67
2023/08/16 10:12:03;;;;;;;5.60;5.00;;;;;;;30.82;63.68;100874.04;103568;1282;72959;-66
2023/08/16 10:14:31;;;;;;;5.50;4.50;;;;;;;30.96;63.33;100877.94;103888;1275;82569;-66
2023/08/16 10:17:02;;;;;;;5.30;4.80;;;;;;;31.14;62.39;100873.33;103899;1274;72957;-66
2023/08/16 10:19:36;;;;;;;6.40;5.10;;;;;;;31.37;61.79;100870.73;103875;1273;69329;-66
2023/08/16 10:22:07;;;;;;;5.60;4.50;;;;;;;31.65;61.61;100870.67;104128;1274;69252;-66
2023/08/16 10:24:55;;;;;;;7.80;4.50;;;;;;;31.97;60.46;100871.61;104625;1271;74275;-66
2023/08/16 10:27:23;;;;;;;5.60;4.40;;;;;;;32.15;59.47;100868.50;104970;1264;83504;-66
2023/08/16 10:29:53;;;;;;;5.10;4.60;;;;;;;32.30;58.95;100865.63;105434;1257;72632;-66
2023/08/16 10:32:24;;;;;;;6.10;4.40;;;;;;;32.45;58.25;100869.41;105473;1254;69065;-66
2023/08/16 10:34:55;;;;;;;4.40;4.00;;;;;;;32.62;57.93;100867.79;105457;1257;69176;-67
2023/08/16 10:37:22;;;;;;;4.70;4.10;;;;;;;32.79;57.34;100867.02;105434;1258;72999;-66
2023/08/16 10:39:52;;;;;;;6.00;4.40;;;;;;;32.97;56.92;100864.39;105409;1254;83415;-65
2023/08/16 10:42:26;;;;;;;3.80;3.50;;;;;;;33.27;56.44;100860.96;105005;1264;72773;-65
2023/08/16 10:44:53;;;;;;;4.00;3.50;;;;;;;33.62;55.83;100855.85;104966;1261;69159;-66
2023/08/16 10:47:30;;;;;;;5.40;3.70;;;;;;;33.93;55.27;100859.15;105001;1260;69366;-66
2023/08/16 10:50:00;;;;;;;6.40;3.70;;;;;;;34.22;54.53;100855.27;104976;1264;73830;-65
2023/08/16 10:52:28;;;;;;;5.10;3.80;;;;;;;34.50;53.82;100860.23;104978;1264;83337;-65
2023/08/16 10:54:56;;;;;;;5.40;3.20;;;;;;;34.68;52.93;100866.02;104956;1260;73588;-65
2023/08/16 10:57:27;;;;;;;4.80;3.20;;;;;;;34.90;52.51;100861.95;104995;1261;69326;-66
2023/08/16 11:00:05;;;;;;;3.90;3.10;;;;;;;35.08;51.66;100857.35;105007;1260;69432;-65
2023/08/16 11:02:35;;;;;;;4.80;3.20;;;;;;;35.24;50.95;100859.02;105450;1254;72856;-65
2023/08/16 11:05:03;;;;;;;3.20;2.90;;;;;;;35.43;50.28;100857.84;105464;1258;83556;-66
2023/08/16 11:07:30;;;;;;;3.60;3.20;;;;;;;35.64;50.01;100860.55;105428;1257;73685;-65
2023/08/16 11:09:59;;;;;;;4.50;3.20;;;;;;;35.79;48.95;100857.03;105403;1254;69141;-65
2023/08/16 11:12:34;;;;;;;5.20;2.90;;;;;;;35.97;48.60;100855.11;105464;1257;69173;-65
2023/08/16 11:15:01;;;;;;;5.20;2.70;;;;;;;36.12;48.08;100856.06;105446;1254;73978;-66
2023/08/16 11:17:29;;;;;;;4.20;3.00;;;;;;;36.17;47.68;100855.96;105332;1260;83689;-66